sensor_id;sensor_type;location;lat;lon;timestamp;pressure;altitude;pressure_sealevel;temperature;humidity
13732;BME280;6937;56.096;12.664;2023-03-20T00:00:36;100953.06;;;6.82;100.00
13732;BME280;6937;56.096;12.664;2023-03-20T00:03:02;100960.03;;;6.85;100.00
13732;BME280;6937;56.096;12.664;2023-03-20T00:05:29;100958.84;;;6.91;100.00
13732;BME280;6937;56.096;12.664;2023-03-20T00:07:56;100944.69;;;6.90;100.00
13732;BME280;6937;56.096;12.664;2023-03-20T00:10:26;100951.56;;;6.94;100.00
13732;BME280;6937;56.096;12.664;2023-03-20T00:12:55;100957.66;;;6.96;100.00
13732;BME280;6937;56.096;12.664;2023-03-20T00:15:26;100955.75;;;6.98;100.00
13732;BME280;6937;56.096;12.664;2023-03-20T00:17:52;100956.72;;;6.97;100.00
13732;BME280;6937;56.096;12.664;2023-03-20T00:20:19;100956.78;;;6.96;100.00
13732;BME280;6937;56.096;12.664;2023-03-20T00:22:45;100962.97;;;6.96;100.00
13732;BME280;6937;56.096;12.664;2023-03-20T00:25:19;100952.25;;;6.98;100.00
13732;BME280;6937;56.096;12.664;2023-03-20T00:27:45;100962.97;;;6.96;100.00
13732;BME280;6937;56.096;12.664;2023-03-20T00:30:27;100949.06;;;6.91;100.00
13732;BME280;6937;56.096;12.664;2023-03-20T00:32:55;100959.19;;;6.85;100.00
13732;BME280;6937;56.096;12.664;2023-03-20T00:35:22;100970.84;;;6.82;100.00
13732;BME280;6937;56.096;12.664;2023-03-20T00:37:51;100956.53;;;6.85;100.00
13732;BME280;6937;56.096;12.664;2023-03-20T00:40:17;100961.31;;;6.78;100.00
13732;BME280;6937;56.096;12.664;2023-03-20T00:42:45;100958.66;;;6.78;100.00
13732;BME280;6937;56.096;12.664;2023-03-20T00:45:18;100950.59;;;6.79;100.00
13732;BME280;6937;56.096;12.664;2023-03-20T00:47:47;100957.78;;;6.77;100.00
13732;BME280;6937;56.096;12.664;2023-03-20T00:50:18;100957.00;;;6.75;100.00
13732;BME280;6937;56.096;12.664;2023-03-20T00:52:44;100960.53;;;6.76;100.00
13732;BME280;6937;56.096;12.664;2023-03-20T00:55:10;100967.50;;;6.78;100.00
13732;BME280;6937;56.096;12.664;2023-03-20T00:57:42;100969.97;;;6.82;100.00
13732;BME280;6937;56.096;12.664;2023-03-20T01:02:48;100974.09;;;6.87;100.00
13732;BME280;6937;56.096;12.664;2023-03-20T01:05:16;100979.56;;;6.84;100.00
13732;BME280;6937;56.096;12.664;2023-03-20T01:07:42;100965.41;;;6.84;100.00
13732;BME280;6937;56.096;12.664;2023-03-20T01:10:09;100971.59;;;6.84;100.00
13732;BME280;6937;56.096;12.664;2023-03-20T01:12:39;100977.25;;;6.78;100.00
13732;BME280;6937;56.096;12.664;2023-03-20T01:15:22;100979.13;;;6.76;100.00
13732;BME280;6937;56.096;12.664;2023-03-20T01:17:49;100976.69;;;6.71;100.00
13732;BME280;6937;56.096;12.664;2023-03-20T01:20:24;100974.03;;;6.71;100.00
13732;BME280;6937;56.096;12.664;2023-03-20T01:22:49;100976.88;;;6.68;100.00
13732;BME280;6937;56.096;12.664;2023-03-20T01:25:15;100987.41;;;6.70;100.00
13732;BME280;6937;56.096;12.664;2023-03-20T01:27:44;100982.97;;;6.70;100.00
13732;BME280;6937;56.096;12.664;2023-03-20T01:30:31;100979.28;;;6.73;100.00
13732;BME280;6937;56.096;12.664;2023-03-20T01:32:58;100981.94;;;6.73;100.00
13732;BME280;6937;56.096;12.664;2023-03-20T01:35:26;100983.03;;;6.69;100.00
13732;BME280;6937;56.096;12.664;2023-03-20T01:37:52;100989.28;;;6.68;100.00
13732;BME280;6937;56.096;12.664;2023-03-20T01:42:46;100990.75;;;6.73;100.00
13732;BME280;6937;56.096;12.664;2023-03-20T01:45:16;100992.56;;;6.73;100.00
13732;BME280;6937;56.096;12.664;2023-03-20T01:47:43;100986.16;;;6.77;100.00
13732;BME280;6937;56.096;12.664;2023-03-20T01:52:54;100983.25;;;6.82;100.00
13732;BME280;6937;56.096;12.664;2023-03-20T01:55:22;100990.88;;;6.88;100.00
13732;BME280;6937;56.096;12.664;2023-03-20T01:57:50;100990.66;;;6.92;100.00
13732;BME280;6937;56.096;12.664;2023-03-20T02:00:19;100996.88;;;6.91;100.00
13732;BME280;6937;56.096;12.664;2023-03-20T02:02:46;100986.25;;;6.91;100.00
13732;BME280;6937;56.096;12.664;2023-03-20T02:05:14;100986.25;;;6.91;100.00
13732;BME280;6937;56.096;12.664;2023-03-20T02:07:45;100997.75;;;6.92;100.00
13732;BME280;6937;56.096;12.664;2023-03-20T02:10:15;100991.69;;;6.90;100.00
13732;BME280;6937;56.096;12.664;2023-03-20T02:12:42;100999.25;;;6.97;100.00
13732;BME280;6937;56.096;12.664;2023-03-20T02:15:10;101005.16;;;7.02;100.00
13732;BME280;6937;56.096;12.664;2023-03-20T02:17:36;101012.13;;;7.05;100.00
13732;BME280;6937;56.096;12.664;2023-03-20T02:20:26;101006.88;;;7.03;100.00
13732;BME280;6937;56.096;12.664;2023-03-20T02:29:20;101026.78;;;7.12;100.00
13732;BME280;6937;56.096;12.664;2023-03-20T02:33:59;101034.66;;;7.13;100.00
13732;BME280;6937;56.096;12.664;2023-03-20T02:39:53;101035.34;;;7.17;100.00
13732;BME280;6937;56.096;12.664;2023-03-20T02:43:00;101025.69;;;7.16;100.00
13732;BME280;6937;56.096;12.664;2023-03-20T02:45:27;101026.44;;;7.18;100.00
13732;BME280;6937;56.096;12.664;2023-03-20T02:50:38;101030.13;;;7.31;100.00
13732;BME280;6937;56.096;12.664;2023-03-20T02:56:13;101041.13;;;7.25;100.00
13732;BME280;6937;56.096;12.664;2023-03-20T02:58:51;101034.25;;;7.21;100.00
13732;BME280;6937;56.096;12.664;2023-03-20T03:03:59;101039.31;;;7.25;100.00
13732;BME280;6937;56.096;12.664;2023-03-20T03:06:31;101047.97;;;7.29;100.00
13732;BME280;6937;56.096;12.664;2023-03-20T03:09:02;101044.16;;;7.35;100.00
13732;BME280;6937;56.096;12.664;2023-03-20T03:11:33;101044.91;;;7.37;100.00
13732;BME280;6937;56.096;12.664;2023-03-20T03:14:00;101047.50;;;7.38;100.00
13732;BME280;6937;56.096;12.664;2023-03-20T03:16:30;101055.31;;;7.41;100.00
13732;BME280;6937;56.096;12.664;2023-03-20T03:19:02;101056.06;;;7.43;100.00
13732;BME280;6937;56.096;12.664;2023-03-20T03:21:31;101060.63;;;7.41;100.00
13732;BME280;6937;56.096;12.664;2023-03-20T03:23:58;101073.75;;;7.44;100.00
13732;BME280;6937;56.096;12.664;2023-03-20T03:26:26;101076.41;;;7.44;100.00
13732;BME280;6937;56.096;12.664;2023-03-20T03:29:01;101085.06;;;7.48;100.00
13732;BME280;6937;56.096;12.664;2023-03-20T03:31:30;101084.91;;;7.51;100.00
13732;BME280;6937;56.096;12.664;2023-03-20T03:33:57;101079.56;;;7.51;100.00
13732;BME280;6937;56.096;12.664;2023-03-20T03:41:45;101075.38;;;7.47;100.00
13732;BME280;6937;56.096;12.664;2023-03-20T03:44:30;101068.19;;;7.49;100.00
13732;BME280;6937;56.096;12.664;2023-03-20T03:47:04;101069.03;;;7.49;100.00
13732;BME280;6937;56.096;12.664;2023-03-20T03:49:34;101064.66;;;7.48;100.00
13732;BME280;6937;56.096;12.664;2023-03-20T03:52:10;101056.69;;;7.48;100.00
13732;BME280;6937;56.096;12.664;2023-03-20T03:54:42;101060.28;;;7.47;100.00
13732;BME280;6937;56.096;12.664;2023-03-20T03:57:09;101063.72;;;7.49;100.00
13732;BME280;6937;56.096;12.664;2023-03-20T03:59:40;101066.38;;;7.49;100.00
13732;BME280;6937;56.096;12.664;2023-03-20T04:02:08;101061.06;;;7.49;100.00
13732;BME280;6937;56.096;12.664;2023-03-20T04:04:38;101073.25;;;7.53;100.00
13732;BME280;6937;56.096;12.664;2023-03-20T04:07:06;101079.50;;;7.52;100.00
13732;BME280;6937;56.096;12.664;2023-03-20T04:09:31;101071.78;;;7.48;100.00
13732;BME280;6937;56.096;12.664;2023-03-20T04:11:57;101076.16;;;7.49;100.00
13732;BME280;6937;56.096;12.664;2023-03-20T04:14:23;101077.16;;;7.46;100.00
13732;BME280;6937;56.096;12.664;2023-03-20T04:16:49;101079.94;;;7.45;100.00
13732;BME280;6937;56.096;12.664;2023-03-20T04:19:14;101074.50;;;7.46;100.00
13732;BME280;6937;56.096;12.664;2023-03-20T04:21:39;101076.16;;;7.49;100.00
13732;BME280;6937;56.096;12.664;2023-03-20T04:24:05;101074.09;;;7.54;100.00
13732;BME280;6937;56.096;12.664;2023-03-20T04:26:31;101086.44;;;7.55;100.00
13732;BME280;6937;56.096;12.664;2023-03-20T04:28:56;101085.69;;;7.53;100.00
13732;BME280;6937;56.096;12.664;2023-03-20T04:31:22;101075.28;;;7.48;100.00
13732;BME280;6937;56.096;12.664;2023-03-20T04:33:48;101086.88;;;7.47;100.00
13732;BME280;6937;56.096;12.664;2023-03-20T04:36:13;101087.66;;;7.49;100.00
13732;BME280;6937;56.096;12.664;2023-03-20T04:38:39;101088.34;;;7.53;100.00
13732;BME280;6937;56.096;12.664;2023-03-20T04:41:05;101093.03;;;7.48;100.00
13732;BME280;6937;56.096;12.664;2023-03-20T04:43:31;101103.75;;;7.46;100.00
13732;BME280;6937;56.096;12.664;2023-03-20T04:45:56;101109.25;;;7.43;100.00
13732;BME280;6937;56.096;12.664;2023-03-20T04:48:22;101107.44;;;7.44;100.00
13732;BME280;6937;56.096;12.664;2023-03-20T04:50:47;101105.72;;;7.43;100.00
13732;BME280;6937;56.096;12.664;2023-03-20T04:53:15;101107.44;;;7.44;100.00
13732;BME280;6937;56.096;12.664;2023-03-20T04:55:40;101118.19;;;7.42;100.00
13732;BME280;6937;56.096;12.664;2023-03-20T04:58:06;101130.69;;;7.40;100.00
13732;BME280;6937;56.096;12.664;2023-03-20T05:00:32;101128.97;;;7.39;100.00
13732;BME280;6937;56.096;12.664;2023-03-20T05:02:57;101137.09;;;7.36;100.00
13732;BME280;6937;56.096;12.664;2023-03-20T05:05:22;101137.28;;;7.33;100.00
13732;BME280;6937;56.096;12.664;2023-03-20T05:07:48;101141.66;;;7.34;100.00
13732;BME280;6937;56.096;12.664;2023-03-20T05:10:14;101154.94;;;7.34;100.00
13732;BME280;6937;56.096;12.664;2023-03-20T05:12:40;101153.16;;;7.35;100.00
13732;BME280;6937;56.096;12.664;2023-03-20T05:15:05;101154.09;;;7.34;100.00
13732;BME280;6937;56.096;12.664;2023-03-20T05:17:31;101161.13;;;7.35;100.00
13732;BME280;6937;56.096;12.664;2023-03-20T05:19:56;101173.56;;;7.34;100.00
13732;BME280;6937;56.096;12.664;2023-03-20T05:22:22;101167.56;;;7.31;100.00
13732;BME280;6937;56.096;12.664;2023-03-20T05:24:47;101172.94;;;7.29;100.00
13732;BME280;6937;56.096;12.664;2023-03-20T05:27:12;101184.50;;;7.28;100.00
13732;BME280;6937;56.096;12.664;2023-03-20T05:29:38;101196.00;;;7.28;100.00
13732;BME280;6937;56.096;12.664;2023-03-20T05:32:03;101191.63;;;7.27;100.00
13732;BME280;6937;56.096;12.664;2023-03-20T05:34:29;101191.53;;;7.29;100.00
13732;BME280;6937;56.096;12.664;2023-03-20T05:36:55;101198.66;;;7.28;100.00
13732;BME280;6937;56.096;12.664;2023-03-20T05:39:21;101196.94;;;7.27;100.00
13732;BME280;6937;56.096;12.664;2023-03-20T05:41:47;101215.47;;;7.29;100.00
13732;BME280;6937;56.096;12.664;2023-03-20T05:44:12;101217.38;;;7.27;100.00
13732;BME280;6937;56.096;12.664;2023-03-20T05:46:38;101223.28;;;7.32;100.00
13732;BME280;6937;56.096;12.664;2023-03-20T05:49:03;101234.94;;;7.29;100.00
13732;BME280;6937;56.096;12.664;2023-03-20T05:51:28;101240.16;;;7.31;100.00
13732;BME280;6937;56.096;12.664;2023-03-20T05:53:54;101243.69;;;7.32;100.00
13732;BME280;6937;56.096;12.664;2023-03-20T05:56:19;101256.91;;;7.33;100.00
13732;BME280;6937;56.096;12.664;2023-03-20T05:58:44;101260.50;;;7.32;100.00
13732;BME280;6937;56.096;12.664;2023-03-20T06:01:10;101265.06;;;7.30;100.00
13732;BME280;6937;56.096;12.664;2023-03-20T06:03:35;101265.06;;;7.30;100.00
13732;BME280;6937;56.096;12.664;2023-03-20T06:06:01;101267.88;;;7.27;100.00
13732;BME280;6937;56.096;12.664;2023-03-20T06:08:27;101269.41;;;7.31;100.00
13732;BME280;6937;56.096;12.664;2023-03-20T06:10:54;101280.91;;;7.32;100.00
13732;BME280;6937;56.096;12.664;2023-03-20T06:13:20;101282.66;;;7.33;100.00
13732;BME280;6937;56.096;12.664;2023-03-20T06:15:45;101289.75;;;7.32;100.00
13732;BME280;6937;56.096;12.664;2023-03-20T06:18:10;101296.16;;;7.28;100.00
13732;BME280;6937;56.096;12.664;2023-03-20T06:20:36;101298.81;;;7.28;100.00
13732;BME280;6937;56.096;12.664;2023-03-20T06:23:01;101305.94;;;7.27;100.00
13732;BME280;6937;56.096;12.664;2023-03-20T06:25:26;101308.59;;;7.27;100.00
13732;BME280;6937;56.096;12.664;2023-03-20T06:27:52;101309.44;;;7.28;100.00
13732;BME280;6937;56.096;12.664;2023-03-20T06:30:17;101325.50;;;7.26;100.00
13732;BME280;6937;56.096;12.664;2023-03-20T06:32:43;101323.00;;;7.23;100.00
13732;BME280;6937;56.096;12.664;2023-03-20T06:35:09;101322.91;;;7.25;100.00
13732;BME280;6937;56.096;12.664;2023-03-20T06:37:35;101336.19;;;7.25;100.00
13732;BME280;6937;56.096;12.664;2023-03-20T06:40:06;101340.75;;;7.23;100.00
13732;BME280;6937;56.096;12.664;2023-03-20T06:42:32;101339.94;;;7.21;100.00
13732;BME280;6937;56.096;12.664;2023-03-20T06:44:57;101353.06;;;7.24;100.00
13732;BME280;6937;56.096;12.664;2023-03-20T06:47:23;101353.00;;;7.25;100.00
13732;BME280;6937;56.096;12.664;2023-03-20T06:49:48;101365.38;;;7.26;100.00
13732;BME280;6937;56.096;12.664;2023-03-20T06:52:18;101365.38;;;7.26;100.00
13732;BME280;6937;56.096;12.664;2023-03-20T06:54:45;101368.91;;;7.27;100.00
13732;BME280;6937;56.096;12.664;2023-03-20T06:57:11;101369.69;;;7.29;100.00
13732;BME280;6937;56.096;12.664;2023-03-20T06:59:36;101378.38;;;7.33;100.00
13732;BME280;6937;56.096;12.664;2023-03-20T07:02:02;101382.66;;;7.35;100.00
13732;BME280;6937;56.096;12.664;2023-03-20T07:04:28;101399.63;;;7.33;100.00
13732;BME280;6937;56.096;12.664;2023-03-20T07:06:53;101400.50;;;7.33;100.00
13732;BME280;6937;56.096;12.664;2023-03-20T07:09:19;101412.00;;;7.34;100.00
13732;BME280;6937;56.096;12.664;2023-03-20T07:11:46;101411.69;;;7.40;100.00
13732;BME280;6937;56.096;12.664;2023-03-20T07:14:11;101411.84;;;7.37;100.00
13732;BME280;6937;56.096;12.664;2023-03-20T07:16:37;101417.22;;;7.35;100.00
13732;BME280;6937;56.096;12.664;2023-03-20T07:19:02;101418.09;;;7.36;100.00
13732;BME280;6937;56.096;12.664;2023-03-20T07:21:28;101433.88;;;7.39;100.00
13732;BME280;6937;56.096;12.664;2023-03-20T07:23:54;101442.03;;;7.36;100.00
13732;BME280;6937;56.096;12.664;2023-03-20T07:26:19;101450.72;;;7.39;100.00
13732;BME280;6937;56.096;12.664;2023-03-20T07:28:45;101455.16;;;7.39;100.00
13732;BME280;6937;56.096;12.664;2023-03-20T07:31:25;101462.31;;;7.38;100.00
13732;BME280;6937;56.096;12.664;2023-03-20T07:33:50;101462.38;;;7.37;100.00
13732;BME280;6937;56.096;12.664;2023-03-20T07:36:16;101465.03;;;7.37;100.00
13732;BME280;6937;56.096;12.664;2023-03-20T07:38:42;101469.56;;;7.35;100.00
13732;BME280;6937;56.096;12.664;2023-03-20T07:41:07;101459.88;;;7.34;100.00
13732;BME280;6937;56.096;12.664;2023-03-20T07:43:32;101470.50;;;7.34;100.00
13732;BME280;6937;56.096;12.664;2023-03-20T07:46:01;101465.94;;;7.36;100.00
13732;BME280;6937;56.096;12.664;2023-03-20T07:48:27;101465.34;;;7.31;100.00
13732;BME280;6937;56.096;12.664;2023-03-20T07:50:52;101472.44;;;7.30;100.00
13732;BME280;6937;56.096;12.664;2023-03-20T07:53:17;101477.75;;;7.30;100.00
13732;BME280;6937;56.096;12.664;2023-03-20T07:55:43;101477.75;;;7.30;100.00
13732;BME280;6937;56.096;12.664;2023-03-20T07:58:09;101484.88;;;7.29;100.00
13732;BME280;6937;56.096;12.664;2023-03-20T08:00:34;101477.91;;;7.27;100.00
13732;BME280;6937;56.096;12.664;2023-03-20T08:03:00;101478.75;;;7.27;100.00
13732;BME280;6937;56.096;12.664;2023-03-20T08:05:25;101492.84;;;7.29;100.00
13732;BME280;6937;56.096;12.664;2023-03-20T08:07:51;101487.53;;;7.29;100.00
13732;BME280;6937;56.096;12.664;2023-03-20T08:10:17;101484.94;;;7.28;100.00
13732;BME280;6937;56.096;12.664;2023-03-20T08:12:42;101493.91;;;7.25;100.00
13732;BME280;6937;56.096;12.664;2023-03-20T08:15:08;101485.94;;;7.25;100.00
13732;BME280;6937;56.096;12.664;2023-03-20T08:17:33;101479.84;;;7.23;100.00
13732;BME280;6937;56.096;12.664;2023-03-20T08:19:59;101481.72;;;7.21;100.00
13732;BME280;6937;56.096;12.664;2023-03-20T08:22:25;101479.84;;;7.23;100.00
13732;BME280;6937;56.096;12.664;2023-03-20T08:24:50;101485.16;;;7.23;100.00
13732;BME280;6937;56.096;12.664;2023-03-20T08:27:15;101484.31;;;7.23;100.00
13732;BME280;6937;56.096;12.664;2023-03-20T08:29:41;101488.09;;;7.17;100.00
13732;BME280;6937;56.096;12.664;2023-03-20T08:32:06;101484.44;;;7.20;100.00
13732;BME280;6937;56.096;12.664;2023-03-20T08:34:32;101491.47;;;7.21;100.00
13732;BME280;6937;56.096;12.664;2023-03-20T08:36:57;101489.69;;;7.21;100.00
13732;BME280;6937;56.096;12.664;2023-03-20T08:39:23;101489.84;;;7.18;100.00
13732;BME280;6937;56.096;12.664;2023-03-20T08:41:48;101490.59;;;7.20;100.00
13732;BME280;6937;56.096;12.664;2023-03-20T08:44:14;101494.34;;;7.16;100.00
13732;BME280;6937;56.096;12.664;2023-03-20T08:46:39;101490.69;;;7.19;100.00
13732;BME280;6937;56.096;12.664;2023-03-20T08:49:05;101480.06;;;7.19;100.00
13732;BME280;6937;56.096;12.664;2023-03-20T08:51:31;101482.72;;;7.19;100.00
13732;BME280;6937;56.096;12.664;2023-03-20T08:53:57;101494.13;;;7.21;100.00
13732;BME280;6937;56.096;12.664;2023-03-20T08:56:22;101488.91;;;7.19;100.00
13732;BME280;6937;56.096;12.664;2023-03-20T08:58:47;101487.19;;;7.18;100.00
13732;BME280;6937;56.096;12.664;2023-03-20T09:01:13;101485.38;;;7.19;100.00
13732;BME280;6937;56.096;12.664;2023-03-20T09:03:39;101480.69;;;7.24;100.00
13732;BME280;6937;56.096;12.664;2023-03-20T09:06:06;101477.09;;;7.25;100.00
13732;BME280;6937;56.096;12.664;2023-03-20T09:08:32;101477.91;;;7.27;100.00
13732;BME280;6937;56.096;12.664;2023-03-20T09:10:58;101490.03;;;7.33;100.00
13732;BME280;6937;56.096;12.664;2023-03-20T09:13:23;101488.31;;;7.32;100.00
13732;BME280;6937;56.096;12.664;2023-03-20T09:15:50;101487.59;;;7.28;100.00
13732;BME280;6937;56.096;12.664;2023-03-20T09:18:16;101490.19;;;7.29;100.00
13732;BME280;6937;56.096;12.664;2023-03-20T09:20:41;101495.34;;;7.33;100.00
13732;BME280;6937;56.096;12.664;2023-03-20T09:23:06;101498.81;;;7.35;100.00
13732;BME280;6937;56.096;12.664;2023-03-20T09:25:32;101491.63;;;7.37;100.00
13732;BME280;6937;56.096;12.664;2023-03-20T09:27:57;101505.56;;;7.42;100.00
13732;BME280;6937;56.096;12.664;2023-03-20T09:30:22;101504.75;;;7.40;100.00
13732;BME280;6937;56.096;12.664;2023-03-20T09:32:49;101507.38;;;7.41;100.00
13732;BME280;6937;56.096;12.664;2023-03-20T09:35:15;101503.84;;;7.41;100.00
13732;BME280;6937;56.096;12.664;2023-03-20T09:37:40;101502.91;;;7.42;100.00
13732;BME280;6937;56.096;12.664;2023-03-20T09:40:07;101502.91;;;7.42;100.00
13732;BME280;6937;56.096;12.664;2023-03-20T09:42:48;101488.59;;;7.44;100.00
13732;BME280;6937;56.096;12.664;2023-03-20T09:45:26;101490.75;;;7.36;100.00
13732;BME280;6937;56.096;12.664;2023-03-20T09:48:04;101501.25;;;7.39;100.00
13732;BME280;6937;56.096;12.664;2023-03-20T09:50:37;101490.47;;;7.42;100.00
13732;BME280;6937;56.096;12.664;2023-03-20T09:53:35;101490.34;;;7.45;100.00
13732;BME280;6937;56.096;12.664;2023-03-20T09:56:00;101500.88;;;7.47;100.00
13732;BME280;6937;56.096;12.664;2023-03-20T09:58:31;101485.72;;;7.49;100.00
13732;BME280;6937;56.096;12.664;2023-03-20T10:00:59;101488.38;;;7.49;100.00
13732;BME280;6937;56.096;12.664;2023-03-20T10:03:43;101488.22;;;7.52;100.00
13732;BME280;6937;56.096;12.664;2023-03-20T10:06:13;101482.13;;;7.50;100.00
13732;BME280;6937;56.096;12.664;2023-03-20T10:08:39;101488.16;;;7.53;100.00
13732;BME280;6937;56.096;12.664;2023-03-20T10:11:33;101475.69;;;7.54;100.00
13732;BME280;6937;56.096;12.664;2023-03-20T10:14:49;101467.09;;;7.49;100.00
13732;BME280;6937;56.096;12.664;2023-03-20T10:22:32;101474.00;;;7.53;100.00
13732;BME280;6937;56.096;12.664;2023-03-20T10:25:07;101466.88;;;7.53;100.00
13732;BME280;6937;56.096;12.664;2023-03-20T10:27:45;101459.03;;;7.50;100.00
13732;BME280;6937;56.096;12.664;2023-03-20T10:32:49;101445.66;;;7.52;100.00
13732;BME280;6937;56.096;12.664;2023-03-20T10:36:15;101456.16;;;7.55;100.00
13732;BME280;6937;56.096;12.664;2023-03-20T10:38:46;101434.09;;;7.53;100.00
13732;BME280;6937;56.096;12.664;2023-03-20T10:41:18;101426.19;;;7.51;100.00
13732;BME280;6937;56.096;12.664;2023-03-20T10:43:48;101426.75;;;7.58;100.00
13732;BME280;6937;56.096;12.664;2023-03-20T10:46:19;101430.19;;;7.60;100.00
13732;BME280;6937;56.096;12.664;2023-03-20T10:49:14;101422.84;;;7.65;100.00
13732;BME280;6937;56.096;12.664;2023-03-20T10:51:53;101423.47;;;7.70;100.00
13732;BME280;6937;56.096;12.664;2023-03-20T10:54:23;101419.09;;;7.69;100.00
13732;BME280;6937;56.096;12.664;2023-03-20T10:56:52;101420.19;;;7.65;100.00
13732;BME280;6937;56.096;12.664;2023-03-20T10:59:25;101410.34;;;7.67;100.00
13732;BME280;6937;56.096;12.664;2023-03-20T11:01:52;101412.69;;;7.73;100.00
13732;BME280;6937;56.096;12.664;2023-03-20T11:04:17;101420.53;;;7.76;100.00
13732;BME280;6937;56.096;12.664;2023-03-20T11:09:36;101408.88;;;7.78;100.00
13732;BME280;6937;56.096;12.664;2023-03-20T11:12:02;101404.09;;;7.85;100.00
13732;BME280;6937;56.096;12.664;2023-03-20T11:14:33;101398.59;;;7.88;100.00
13732;BME280;6937;56.096;12.664;2023-03-20T11:17:01;101390.84;;;7.84;100.00
13732;BME280;6937;56.096;12.664;2023-03-20T11:19:32;101372.38;;;7.81;100.00
13732;BME280;6937;56.096;12.664;2023-03-20T11:22:06;101378.50;;;7.83;100.00
13732;BME280;6937;56.096;12.664;2023-03-20T11:27:26;101371.22;;;7.86;100.00
13732;BME280;6937;56.096;12.664;2023-03-20T11:29:53;101358.91;;;7.84;100.00
13732;BME280;6937;56.096;12.664;2023-03-20T11:32:26;101357.22;;;7.83;100.00
13732;BME280;6937;56.096;12.664;2023-03-20T11:34:52;101342.25;;;7.80;100.00
13732;BME280;6937;56.096;12.664;2023-03-20T11:37:28;101324.47;;;7.81;100.00
13732;BME280;6937;56.096;12.664;2023-03-20T11:40:32;101315.72;;;7.78;100.00
13732;BME280;6937;56.096;12.664;2023-03-20T11:45:33;101293.75;;;7.75;100.00
13732;BME280;6937;56.096;12.664;2023-03-20T11:48:00;101290.00;;;7.79;100.00
13732;BME280;6937;56.096;12.664;2023-03-20T11:50:31;101275.72;;;7.80;100.00
13732;BME280;6937;56.096;12.664;2023-03-20T11:52:59;101276.75;;;7.77;100.00
13732;BME280;6937;56.096;12.664;2023-03-20T11:55:30;101260.56;;;7.82;100.00
13732;BME280;6937;56.096;12.664;2023-03-20T11:58:05;101254.28;;;7.83;100.00
13732;BME280;6937;56.096;12.664;2023-03-20T12:00:39;101231.34;;;7.81;100.00
13732;BME280;6937;56.096;12.664;2023-03-20T12:03:49;101215.22;;;7.84;100.00
13732;BME280;6937;56.096;12.664;2023-03-20T12:06:26;101208.03;;;7.86;100.00
13732;BME280;6937;56.096;12.664;2023-03-20T12:09:06;101189.16;;;7.90;100.00
13732;BME280;6937;56.096;12.664;2023-03-20T12:14:49;101184.09;;;8.01;100.00
13732;BME280;6937;56.096;12.664;2023-03-20T12:17:29;101175.00;;;8.05;100.00
13732;BME280;6937;56.096;12.664;2023-03-20T12:20:01;101172.41;;;8.04;100.00
13732;BME280;6937;56.096;12.664;2023-03-20T12:22:33;101167.28;;;8.01;100.00
13732;BME280;6937;56.096;12.664;2023-03-20T12:25:08;101155.59;;;8.03;100.00
13732;BME280;6937;56.096;12.664;2023-03-20T12:27:44;101143.22;;;8.02;100.00
13732;BME280;6937;56.096;12.664;2023-03-20T12:30:30;101136.19;;;8.01;100.00
13732;BME280;6937;56.096;12.664;2023-03-20T12:33:10;101139.59;;;8.03;100.00
13732;BME280;6937;56.096;12.664;2023-03-20T12:35:44;101122.78;;;8.03;100.00
13732;BME280;6937;56.096;12.664;2023-03-20T12:38:32;101107.84;;;8.00;100.00
13732;BME280;6937;56.096;12.664;2023-03-20T12:41:21;101097.44;;;7.96;100.00
13732;BME280;6937;56.096;12.664;2023-03-20T12:44:12;101102.09;;;7.92;100.00
13732;BME280;6937;56.096;12.664;2023-03-20T12:49:56;101065.69;;;7.77;100.00
13732;BME280;6937;56.096;12.664;2023-03-20T13:11:41;101025.22;;;7.56;100.00
13732;BME280;6937;56.096;12.664;2023-03-20T13:17:04;101024.41;;;7.39;100.00
13732;BME280;6937;56.096;12.664;2023-03-20T13:19:54;101028.25;;;7.33;100.00
13732;BME280;6937;56.096;12.664;2023-03-20T13:28:06;101023.97;;;7.15;100.00
13732;BME280;6937;56.096;12.664;2023-03-20T13:30:44;101030.28;;;7.12;100.00
13732;BME280;6937;56.096;12.664;2023-03-20T13:33:39;101043.31;;;7.17;100.00
13732;BME280;6937;56.096;12.664;2023-03-20T13:36:26;101032.63;;;7.18;100.00
13732;BME280;6937;56.096;12.664;2023-03-20T13:39:26;101050.72;;;7.27;100.00
13732;BME280;6937;56.096;12.664;2023-03-20T13:41:54;101056.56;;;7.34;100.00
13732;BME280;6937;56.096;12.664;2023-03-20T13:44:22;101059.06;;;7.37;100.00
13732;BME280;6937;56.096;12.664;2023-03-20T13:47:18;101072.72;;;7.47;100.00
13732;BME280;6937;56.096;12.664;2023-03-20T13:49:57;101067.38;;;7.47;100.00
13732;BME280;6937;56.096;12.664;2023-03-20T13:52:30;101068.19;;;7.49;100.00
13732;BME280;6937;56.096;12.664;2023-03-20T14:01:04;101059.00;;;7.70;100.00
13732;BME280;6937;56.096;12.664;2023-03-20T14:03:36;101044.41;;;7.77;100.00
13732;BME280;6937;56.096;12.664;2023-03-20T14:09:00;101020.91;;;7.85;100.00
13732;BME280;6937;56.096;12.664;2023-03-20T14:11:34;101018.41;;;7.98;100.00
13732;BME280;6937;56.096;12.664;2023-03-20T14:14:25;101009.97;;;8.05;100.00
13732;BME280;6937;56.096;12.664;2023-03-20T14:17:19;101007.19;;;8.07;100.00
13732;BME280;6937;56.096;12.664;2023-03-20T14:19:46;101002.84;;;8.06;100.00
13732;BME280;6937;56.096;12.664;2023-03-20T14:22:18;100985.06;;;8.06;100.00
13732;BME280;6937;56.096;12.664;2023-03-20T14:24:58;100975.44;;;8.04;100.00
13732;BME280;6937;56.096;12.664;2023-03-20T14:27:28;100946.34;;;8.01;100.00
13732;BME280;6937;56.096;12.664;2023-03-20T14:29:53;100949.69;;;8.04;100.00
13732;BME280;6937;56.096;12.664;2023-03-20T14:37:37;100923.81;;;8.06;100.00
13732;BME280;6937;56.096;12.664;2023-03-20T14:40:11;100897.78;;;7.97;100.00
13732;BME280;6937;56.096;12.664;2023-03-20T14:43:12;100883.53;;;7.98;100.00